Time;durP1;ratioP1;P1;durP2;ratioP2;P2;SDS_P1;SDS_P2;PMS_P1;PMS_P2;Temp;Humidity;BMP_temperature;BMP_pressure;BME280_temperature;BME280_humidity;BME280_pressure;Samples;Min_cycle;Max_cycle;Signal;HPM_P1;HPM_P2
2023/03/19 00:01:18;;;;;;;0.43;0.20;;;17.30;70.00;;;;;;5007655;28;20052;-76
2023/03/19 00:03:43;;;;;;;0.50;0.40;;;17.30;70.00;;;;;;5000567;28;20053;-77
2023/03/19 00:06:09;;;;;;;0.50;0.40;;;17.30;70.00;;;;;;5005225;28;20038;-76
2023/03/19 00:08:35;;;;;;;0.45;0.45;;;17.20;69.80;;;;;;5006416;28;20541;-76
2023/03/19 00:11:05;;;;;;;0.25;0.25;;;17.20;70.00;;;;;;5001770;28;20058;-76
2023/03/19 00:13:31;;;;;;;0.20;0.20;;;17.20;70.00;;;;;;4987103;28;20080;-76
2023/03/19 00:15:56;;;;;;;0.20;0.20;;;17.20;69.80;;;;;;5007845;28;20447;-75
2023/03/19 00:18:22;;;;;;;0.30;0.30;;;17.20;70.00;;;;;;4994764;28;20049;-76
2023/03/19 00:20:48;;;;;;;0.32;0.32;;;17.20;70.00;;;;;;5007365;28;20105;-75
2023/03/19 00:23:13;;;;;;;0.40;0.40;;;17.20;69.90;;;;;;5011582;28;20068;-75
2023/03/19 00:25:39;;;;;;;0.52;0.30;;;17.20;70.10;;;;;;4979696;28;20053;-76
2023/03/19 00:28:04;;;;;;;0.57;0.40;;;17.20;69.90;;;;;;5007602;28;20074;-76
2023/03/19 00:30:30;;;;;;;0.20;0.20;;;17.20;69.90;;;;;;5005061;28;21973;-76
2023/03/19 00:32:56;;;;;;;0.30;0.30;;;17.20;69.90;;;;;;4999939;28;20041;-75
2023/03/19 00:35:21;;;;;;;0.30;0.30;;;17.20;69.90;;;;;;4996763;28;20065;-76
2023/03/19 00:37:47;;;;;;;0.28;0.28;;;17.20;69.90;;;;;;4999780;28;20743;-76
2023/03/19 00:40:12;;;;;;;0.73;0.40;;;17.20;70.10;;;;;;5008947;28;20089;-76
2023/03/19 00:42:38;;;;;;;0.45;0.40;;;17.20;70.10;;;;;;5007156;28;20104;-76
2023/03/19 00:45:04;;;;;;;0.30;0.30;;;17.20;70.00;;;;;;4997087;28;20104;-76
2023/03/19 00:47:30;;;;;;;0.40;0.30;;;17.20;70.10;;;;;;5005935;28;20427;-76
2023/03/19 00:49:55;;;;;;;0.47;0.40;;;17.20;70.10;;;;;;5002403;28;20057;-76
2023/03/19 00:52:21;;;;;;;0.43;0.40;;;17.20;69.90;;;;;;4997866;28;20049;-76
2023/03/19 00:54:46;;;;;;;0.30;0.30;;;17.20;70.10;;;;;;5008544;28;20057;-76
2023/03/19 00:57:12;;;;;;;0.30;0.30;;;17.20;70.00;;;;;;5005458;28;20053;-76
2023/03/19 00:59:38;;;;;;;0.43;0.40;;;17.20;69.90;;;;;;4992851;28;20117;-76
2023/03/19 01:02:03;;;;;;;0.32;0.32;;;17.10;69.90;;;;;;5001317;28;20046;-76
2023/03/19 01:04:29;;;;;;;0.65;0.40;;;17.20;70.00;;;;;;5007434;28;20579;-76
2023/03/19 01:06:55;;;;;;;0.30;0.30;;;17.20;69.90;;;;;;4989156;28;20562;-76
2023/03/19 01:09:20;;;;;;;0.38;0.20;;;17.10;69.90;;;;;;4988346;28;20423;-76
2023/03/19 01:11:46;;;;;;;0.20;0.20;;;17.10;69.90;;;;;;4996938;28;20060;-76
2023/03/19 01:14:12;;;;;;;0.40;0.40;;;17.10;70.00;;;;;;5006851;28;20388;-76
2023/03/19 01:16:37;;;;;;;0.40;0.30;;;17.10;70.00;;;;;;5001895;28;20138;-76
2023/03/19 01:19:03;;;;;;;0.43;0.35;;;17.10;70.00;;;;;;5004592;28;20041;-76
2023/03/19 01:21:29;;;;;;;0.30;0.10;;;17.10;69.90;;;;;;5002505;28;20495;-76
2023/03/19 01:23:56;;;;;;;1.38;0.30;;;17.10;70.00;;;;;;5019310;28;20029;-76
2023/03/19 01:26:22;;;;;;;0.45;0.30;;;17.10;70.90;;;;;;5005443;28;20499;-76
2023/03/19 01:28:47;;;;;;;0.30;0.22;;;17.10;69.90;;;;;;4998204;28;20038;-76
2023/03/19 01:31:13;;;;;;;0.60;0.30;;;17.10;70.00;;;;;;5001742;28;20053;-76
2023/03/19 01:33:39;;;;;;;0.40;0.38;;;17.10;70.00;;;;;;5005868;28;20042;-76
2023/03/19 01:36:05;;;;;;;0.25;0.20;;;17.10;70.00;;;;;;5004057;28;20092;-76
2023/03/19 01:38:31;;;;;;;0.30;0.30;;;17.10;70.00;;;;;;5006039;28;20034;-76
2023/03/19 01:40:56;;;;;;;0.30;0.30;;;17.10;70.00;;;;;;5005359;28;20498;-76
2023/03/19 01:43:23;;;;;;;0.75;0.20;;;17.10;70.00;;;;;;5003546;28;20042;-76
2023/03/19 01:45:50;;;;;;;0.40;0.28;;;17.10;69.90;;;;;;5006191;28;20046;-76
2023/03/19 01:48:31;;;;;;;0.70;0.50;;;17.10;70.00;;;;;;5003629;28;20046;-76
2023/03/19 01:50:57;;;;;;;0.20;0.20;;;17.10;69.90;;;;;;5002262;28;20042;-76
2023/03/19 01:53:28;;;;;;;0.50;0.30;;;17.10;69.80;;;;;;4990150;28;20048;-76
2023/03/19 01:55:56;;;;;;;0.52;0.30;;;17.10;69.90;;;;;;5006930;28;20117;-76
2023/03/19 01:58:21;;;;;;;0.60;0.38;;;17.10;69.80;;;;;;5006153;28;20061;-75
2023/03/19 02:00:47;;;;;;;0.20;0.20;;;17.10;70.00;;;;;;4989191;28;20510;-76
2023/03/19 02:03:13;;;;;;;0.60;0.38;;;17.00;69.70;;;;;;4988330;28;20061;-76
2023/03/19 02:05:38;;;;;;;0.20;0.20;;;17.00;69.60;;;;;;5002989;28;20041;-75
2023/03/19 02:08:05;;;;;;;0.30;0.22;;;17.10;69.80;;;;;;5002979;28;20055;-75
2023/03/19 02:10:31;;;;;;;0.20;0.20;;;17.10;70.00;;;;;;5007827;28;20046;-76
2023/03/19 02:12:56;;;;;;;0.30;0.30;;;17.00;69.70;;;;;;5002313;28;20057;-76
2023/03/19 02:15:22;;;;;;;0.30;0.30;;;17.00;69.90;;;;;;5004182;28;20049;-76
2023/03/19 02:17:47;;;;;;;0.20;0.20;;;17.00;69.70;;;;;;5005048;28;20137;-76
2023/03/19 02:20:30;;;;;;;0.47;0.20;;;17.00;69.80;;;;;;5005404;28;20057;-76
2023/03/19 02:23:23;;;;;;;0.28;0.28;;;17.10;70.10;;;;;;5004920;28;20045;-76
2023/03/19 02:25:59;;;;;;;0.38;0.38;;;17.00;69.80;;;;;;5003875;28;20056;-76
2023/03/19 02:28:25;;;;;;;0.30;0.30;;;17.00;69.80;;;;;;5021208;28;20132;-76
2023/03/19 02:30:51;;;;;;;1.63;0.30;;;17.00;69.70;;;;;;5001265;28;20085;-76
2023/03/19 02:33:17;;;;;;;0.50;0.32;;;17.00;69.70;;;;;;5006904;28;20046;-76
2023/03/19 02:35:44;;;;;;;0.40;0.20;;;17.00;69.70;;;;;;5009951;28;20045;-77
2023/03/19 02:38:09;;;;;;;0.40;0.25;;;17.00;69.60;;;;;;5011911;28;20099;-76
2023/03/19 02:40:37;;;;;;;0.35;0.20;;;17.00;69.90;;;;;;5006044;28;20041;-75
2023/03/19 02:43:03;;;;;;;0.30;0.30;;;17.00;69.60;;;;;;5009750;28;20034;-75
2023/03/19 02:45:29;;;;;;;0.95;0.30;;;17.00;69.80;;;;;;5006950;28;20049;-75
2023/03/19 02:47:55;;;;;;;0.30;0.20;;;17.00;69.70;;;;;;4993713;28;20077;-75
2023/03/19 02:50:20;;;;;;;0.30;0.20;;;17.10;69.70;;;;;;5011994;28;20084;-75
2023/03/19 02:52:46;;;;;;;0.40;0.25;;;17.00;69.60;;;;;;5008935;28;20062;-75
2023/03/19 02:55:12;;;;;;;0.50;0.38;;;17.00;69.60;;;;;;5010398;28;20576;-75
2023/03/19 02:57:37;;;;;;;0.82;0.30;;;17.00;69.50;;;;;;5007726;28;20034;-75
2023/03/19 03:00:04;;;;;;;0.47;0.43;;;17.00;69.60;;;;;;5008737;28;20561;-75
2023/03/19 03:02:30;;;;;;;0.55;0.30;;;17.00;69.60;;;;;;5009397;28;20085;-75
2023/03/19 03:04:56;;;;;;;0.40;0.30;;;17.00;69.60;;;;;;5024473;28;20556;-75
2023/03/19 03:07:21;;;;;;;0.20;0.20;;;17.00;69.60;;;;;;5007757;28;20188;-75
2023/03/19 03:09:47;;;;;;;0.30;0.30;;;17.00;70.00;;;;;;5008096;28;20064;-75
2023/03/19 03:12:13;;;;;;;0.40;0.40;;;17.00;69.60;;;;;;5007394;28;20053;-75
2023/03/19 03:14:39;;;;;;;0.30;0.30;;;17.00;69.70;;;;;;5010515;28;20510;-75
2023/03/19 03:17:07;;;;;;;0.25;0.20;;;17.00;69.60;;;;;;5006512;28;20560;-75
2023/03/19 03:19:32;;;;;;;0.30;0.30;;;17.00;69.50;;;;;;5008087;28;20050;-75
2023/03/19 03:21:59;;;;;;;0.45;0.43;;;17.00;69.60;;;;;;5008038;28;20103;-75
2023/03/19 03:24:25;;;;;;;0.38;0.30;;;17.00;69.50;;;;;;5007337;28;20046;-75
2023/03/19 03:26:51;;;;;;;0.22;0.20;;;17.00;69.60;;;;;;4991448;28;20044;-75
2023/03/19 03:29:17;;;;;;;0.60;0.30;;;17.00;69.60;;;;;;5005218;28;20049;-75
2023/03/19 03:31:42;;;;;;;0.30;0.20;;;17.00;69.60;;;;;;5012484;28;20464;-75
2023/03/19 03:34:08;;;;;;;0.30;0.20;;;17.00;69.80;;;;;;5011526;28;20115;-75
2023/03/19 03:36:33;;;;;;;0.55;0.30;;;17.00;69.60;;;;;;5011063;28;20046;-75
2023/03/19 03:38:59;;;;;;;0.20;0.17;;;17.00;69.60;;;;;;5008522;28;20580;-75
2023/03/19 03:41:25;;;;;;;0.70;0.30;;;16.90;69.60;;;;;;5019420;28;20506;-76
2023/03/19 03:43:51;;;;;;;0.22;0.20;;;17.00;69.90;;;;;;5007910;28;20125;-75
2023/03/19 03:46:16;;;;;;;0.30;0.20;;;17.00;69.70;;;;;;5006919;28;20141;-75
2023/03/19 03:48:42;;;;;;;0.30;0.30;;;16.90;69.60;;;;;;5009950;28;20144;-76
2023/03/19 03:51:08;;;;;;;0.45;0.30;;;17.00;69.60;;;;;;5005372;28;20546;-75
2023/03/19 03:53:33;;;;;;;0.22;0.20;;;17.00;69.60;;;;;;5008507;28;20049;-75
2023/03/19 03:55:59;;;;;;;0.20;0.20;;;16.90;69.50;;;;;;5004692;28;20082;-75
2023/03/19 03:58:24;;;;;;;0.20;0.20;;;16.90;69.50;;;;;;5005817;28;20048;-75
2023/03/19 04:00:51;;;;;;;0.28;0.20;;;16.90;69.60;;;;;;5007173;28;20037;-75
2023/03/19 04:03:17;;;;;;;0.30;0.30;;;16.90;69.60;;;;;;5006709;28;20046;-75
2023/03/19 04:05:43;;;;;;;0.43;0.20;;;16.90;69.50;;;;;;5006950;28;20088;-75
2023/03/19 04:08:08;;;;;;;0.40;0.32;;;16.90;69.50;;;;;;5006149;28;20053;-75
2023/03/19 04:10:35;;;;;;;0.22;0.22;;;16.90;69.40;;;;;;5009674;28;20049;-75
2023/03/19 04:13:01;;;;;;;0.30;0.20;;;16.90;69.40;;;;;;5009919;28;20061;-75
2023/03/19 04:15:27;;;;;;;0.38;0.38;;;16.90;69.50;;;;;;5007349;28;20542;-75
2023/03/19 04:17:52;;;;;;;0.30;0.20;;;16.90;69.50;;;;;;5007948;28;20046;-75
2023/03/19 04:20:18;;;;;;;0.22;0.22;;;16.90;69.30;;;;;;5007070;28;20495;-75
2023/03/19 04:22:44;;;;;;;1.02;0.35;;;17.00;69.90;;;;;;5007577;28;20042;-75
2023/03/19 04:25:09;;;;;;;0.40;0.40;;;16.90;69.40;;;;;;5003682;28;20043;-75
2023/03/19 04:27:35;;;;;;;0.28;0.28;;;16.90;69.40;;;;;;5001377;28;20038;-75
2023/03/19 04:30:01;;;;;;;0.28;0.20;;;16.90;69.60;;;;;;5013477;28;20459;-75
2023/03/19 04:32:27;;;;;;;0.45;0.28;;;16.90;69.50;;;;;;5008557;28;20034;-75
2023/03/19 04:34:52;;;;;;;0.22;0.20;;;16.90;69.50;;;;;;5007140;28;20092;-75
2023/03/19 04:37:18;;;;;;;0.28;0.28;;;16.90;70.30;;;;;;5007767;28;20101;-75
2023/03/19 04:39:44;;;;;;;0.55;0.20;;;16.90;69.60;;;;;;5007783;28;20045;-75
2023/03/19 04:42:10;;;;;;;0.22;0.10;;;16.90;69.60;;;;;;5006679;28;20041;-75
2023/03/19 04:44:36;;;;;;;0.22;0.22;;;16.90;69.60;;;;;;5007241;28;20038;-76
2023/03/19 04:47:02;;;;;;;0.43;0.20;;;16.90;70.00;;;;;;5005955;28;20041;-75
2023/03/19 04:49:28;;;;;;;0.30;0.20;;;17.00;69.20;;;;;;5003679;28;20050;-75
2023/03/19 04:51:55;;;;;;;0.40;0.32;;;17.00;69.00;;;;;;5007109;28;20580;-75
2023/03/19 04:54:20;;;;;;;0.68;0.40;;;17.00;69.30;;;;;;5003019;28;20052;-75
2023/03/19 04:56:46;;;;;;;0.22;0.20;;;17.00;69.40;;;;;;5007161;28;20034;-74
2023/03/19 04:59:11;;;;;;;0.35;0.30;;;17.00;69.40;;;;;;5007519;28;20041;-75
2023/03/19 05:01:37;;;;;;;0.15;0.15;;;16.90;69.40;;;;;;5006740;28;20034;-75
2023/03/19 05:04:03;;;;;;;0.22;0.20;;;16.90;69.50;;;;;;5006496;28;20055;-75
2023/03/19 05:06:28;;;;;;;0.45;0.30;;;16.90;69.60;;;;;;5007278;28;20045;-74
2023/03/19 05:08:54;;;;;;;0.30;0.30;;;16.90;69.60;;;;;;5009195;28;20044;-75
2023/03/19 05:11:20;;;;;;;0.10;0.10;;;16.90;69.50;;;;;;5010014;28;20478;-75
2023/03/19 05:13:45;;;;;;;0.45;0.20;;;16.90;69.60;;;;;;5011487;28;20411;-75
2023/03/19 05:16:12;;;;;;;0.25;0.10;;;16.90;69.70;;;;;;5011329;28;20045;-74
2023/03/19 05:18:37;;;;;;;0.30;0.20;;;16.90;69.50;;;;;;5012057;28;20468;-75
2023/03/19 05:21:03;;;;;;;0.40;0.35;;;16.90;69.60;;;;;;5025371;28;20105;-74
2023/03/19 05:23:29;;;;;;;0.20;0.20;;;16.80;69.60;;;;;;5010703;28;20049;-75
2023/03/19 05:25:57;;;;;;;0.20;0.20;;;16.90;69.60;;;;;;5013118;28;20041;-74
2023/03/19 05:28:23;;;;;;;0.55;0.20;;;16.90;69.50;;;;;;5008651;28;20507;-74
2023/03/19 05:30:48;;;;;;;0.10;0.10;;;16.90;69.60;;;;;;5016809;28;20045;-75
2023/03/19 05:33:14;;;;;;;0.20;0.20;;;16.90;69.60;;;;;;5012979;28;20081;-75
2023/03/19 05:35:40;;;;;;;0.47;0.20;;;16.90;69.60;;;;;;5016463;28;20603;-74
2023/03/19 05:38:06;;;;;;;0.30;0.10;;;16.90;69.90;;;;;;5007625;28;20558;-75
2023/03/19 05:40:33;;;;;;;0.10;0.10;;;16.90;69.60;;;;;;5013550;28;20060;-74
2023/03/19 05:42:59;;;;;;;0.20;0.20;;;16.80;69.50;;;;;;5011707;28;20536;-74
2023/03/19 05:45:24;;;;;;;0.10;0.10;;;16.90;69.70;;;;;;5009368;28;20050;-74
2023/03/19 05:47:50;;;;;;;0.13;0.13;;;16.80;69.30;;;;;;5013494;28;20045;-74
2023/03/19 05:50:17;;;;;;;0.10;0.10;;;16.80;69.60;;;;;;5002378;28;20065;-75
2023/03/19 05:52:42;;;;;;;0.20;0.20;;;16.90;69.40;;;;;;5002154;28;20052;-75
2023/03/19 05:55:08;;;;;;;0.32;0.10;;;16.90;69.40;;;;;;5006717;28;20049;-74
2023/03/19 05:57:34;;;;;;;0.17;0.17;;;16.80;69.50;;;;;;5005193;28;20104;-75
2023/03/19 06:00:00;;;;;;;0.10;0.10;;;16.80;69.60;;;;;;5005140;28;20037;-75
2023/03/19 06:02:26;;;;;;;0.38;0.30;;;16.80;69.50;;;;;;5004714;28;20495;-75
2023/03/19 06:04:51;;;;;;;0.10;0.10;;;16.90;69.50;;;;;;5007668;28;20045;-75
2023/03/19 06:07:17;;;;;;;0.17;0.17;;;16.80;69.50;;;;;;5006799;28;20145;-74
2023/03/19 06:09:42;;;;;;;0.30;0.30;;;16.80;69.50;;;;;;5003921;28;20128;-75
2023/03/19 06:12:08;;;;;;;0.10;0.10;;;16.80;69.50;;;;;;5006546;28;20046;-75
2023/03/19 06:14:34;;;;;;;0.10;0.10;;;16.80;69.40;;;;;;5010245;28;20077;-75
2023/03/19 06:17:00;;;;;;;0.20;0.20;;;16.90;69.50;;;;;;5009972;28;20065;-75
2023/03/19 06:19:26;;;;;;;0.25;0.20;;;16.80;69.40;;;;;;5007457;28;20490;-75
2023/03/19 06:21:51;;;;;;;0.22;0.22;;;16.80;69.40;;;;;;5004790;28;20522;-75
2023/03/19 06:24:17;;;;;;;0.43;0.38;;;16.80;69.40;;;;;;5005637;28;20041;-74
2023/03/19 06:26:43;;;;;;;0.25;0.20;;;16.80;69.40;;;;;;5004862;28;20510;-74
2023/03/19 06:29:08;;;;;;;0.20;0.10;;;16.80;69.40;;;;;;5005162;28;20569;-75
2023/03/19 06:31:34;;;;;;;0.10;0.10;;;16.80;69.40;;;;;;5006964;28;20089;-75
2023/03/19 06:34:00;;;;;;;0.20;0.20;;;16.80;69.60;;;;;;5004315;28;20068;-75
2023/03/19 06:36:26;;;;;;;0.30;0.20;;;16.80;69.40;;;;;;5004288;28;20141;-75
2023/03/19 06:38:51;;;;;;;0.28;0.28;;;16.80;69.50;;;;;;4991846;28;20045;-74
2023/03/19 06:41:17;;;;;;;0.32;0.10;;;16.80;69.50;;;;;;5004303;28;20049;-76
2023/03/19 06:43:42;;;;;;;0.32;0.20;;;16.80;69.50;;;;;;5004159;28;20511;-76
2023/03/19 06:46:08;;;;;;;0.30;0.25;;;16.90;69.80;;;;;;5001356;28;20116;-75
2023/03/19 06:48:34;;;;;;;0.13;0.13;;;16.90;69.60;;;;;;5002345;28;20523;-75
2023/03/19 06:51:00;;;;;;;0.20;0.20;;;16.90;69.70;;;;;;4668856;28;10000232;-75
2023/03/19 06:53:26;;;;;;;0.05;0.05;;;16.90;70.00;;;;;;5001499;28;20042;-75
2023/03/19 06:55:52;;;;;;;0.20;0.20;;;16.90;69.80;;;;;;5003125;28;20041;-75
2023/03/19 06:58:17;;;;;;;0.30;0.30;;;16.90;69.20;;;;;;5002297;28;20406;-75
2023/03/19 07:00:43;;;;;;;0.28;0.28;;;16.90;69.10;;;;;;5002069;28;20054;-74
2023/03/19 07:03:08;;;;;;;0.32;0.30;;;17.00;69.20;;;;;;5001346;28;20669;-75
2023/03/19 07:05:34;;;;;;;0.40;0.40;;;16.90;69.10;;;;;;5002855;28;20060;-75
2023/03/19 07:08:00;;;;;;;0.30;0.30;;;16.90;69.10;;;;;;5012742;28;20046;-76
2023/03/19 07:10:25;;;;;;;0.65;0.20;;;16.90;69.20;;;;;;4999916;28;20050;-75
2023/03/19 07:12:51;;;;;;;0.30;0.20;;;16.90;69.40;;;;;;5001682;28;20184;-75
2023/03/19 07:15:19;;;;;;;0.20;0.17;;;16.90;69.20;;;;;;4995322;28;20034;-75
2023/03/19 07:17:47;;;;;;;0.10;0.10;;;17.00;69.40;;;;;;5000441;28;20267;-74
2023/03/19 07:20:13;;;;;;;0.20;0.20;;;17.00;69.30;;;;;;5003392;28;20148;-75
2023/03/19 07:22:39;;;;;;;1.65;0.20;;;16.90;69.20;;;;;;5007386;28;20152;-74
2023/03/19 07:25:05;;;;;;;0.35;0.20;;;17.00;69.40;;;;;;5004866;28;20510;-74
2023/03/19 07:27:31;;;;;;;0.15;0.10;;;17.00;69.20;;;;;;4999908;28;20054;-74
2023/03/19 07:29:56;;;;;;;0.30;0.10;;;17.00;69.20;;;;;;5005390;28;20046;-75
2023/03/19 07:32:22;;;;;;;0.52;0.30;;;17.00;69.10;;;;;;5002549;28;20453;-75
2023/03/19 07:34:48;;;;;;;0.15;0.13;;;17.00;68.80;;;;;;5001736;28;20042;-75
2023/03/19 07:37:14;;;;;;;0.20;0.20;;;17.00;69.00;;;;;;5005294;28;20054;-76
2023/03/19 07:39:39;;;;;;;0.20;0.10;;;17.00;69.00;;;;;;5003849;28;20050;-76
2023/03/19 07:42:05;;;;;;;0.20;0.20;;;17.00;69.00;;;;;;5000105;28;20041;-75
2023/03/19 07:44:31;;;;;;;0.28;0.28;;;17.00;69.10;;;;;;5010404;28;20415;-75
2023/03/19 07:46:56;;;;;;;1.13;0.20;;;17.10;69.00;;;;;;5003796;28;20418;-76
2023/03/19 07:49:22;;;;;;;0.90;0.20;;;17.10;68.80;;;;;;5007000;28;20050;-75
2023/03/19 07:51:48;;;;;;;0.95;0.25;;;17.10;68.90;;;;;;5004001;28;20045;-74
2023/03/19 07:54:13;;;;;;;0.30;0.30;;;17.10;69.00;;;;;;5004054;28;20530;-75
2023/03/19 07:56:39;;;;;;;0.43;0.30;;;17.10;69.00;;;;;;4657307;28;10000526;-73
2023/03/19 07:59:05;;;;;;;0.25;0.22;;;17.10;69.30;;;;;;5002270;28;20042;-75
2023/03/19 08:01:30;;;;;;;0.25;0.10;;;17.00;69.40;;;;;;4986430;28;20073;-76
2023/03/19 08:03:56;;;;;;;0.50;0.20;;;17.10;69.40;;;;;;5002978;28;20050;-75
2023/03/19 08:06:22;;;;;;;0.17;0.10;;;17.10;69.30;;;;;;4979559;28;20074;-74
2023/03/19 08:08:48;;;;;;;0.28;0.20;;;17.10;69.60;;;;;;5005210;28;20414;-74
2023/03/19 08:11:14;;;;;;;0.60;0.30;;;17.00;69.20;;;;;;5004134;28;20092;-75
2023/03/19 08:13:41;;;;;;;0.57;0.30;;;17.10;69.30;;;;;;5001495;28;20042;-75
2023/03/19 08:16:07;;;;;;;0.30;0.20;;;17.10;68.20;;;;;;5005539;28;20148;-75
2023/03/19 08:18:33;;;;;;;0.70;0.20;;;17.10;68.70;;;;;;5001715;28;20056;-74
2023/03/19 08:20:59;;;;;;;0.20;0.20;;;17.10;68.90;;;;;;5002546;28;20589;-74
2023/03/19 08:23:25;;;;;;;1.35;0.28;;;17.10;68.90;;;;;;5001496;28;20038;-75
2023/03/19 08:25:52;;;;;;;0.10;0.10;;;17.10;69.10;;;;;;5000827;28;20077;-75
2023/03/19 08:28:18;;;;;;;0.30;0.30;;;17.10;69.10;;;;;;4983780;28;20045;-74
2023/03/19 08:30:44;;;;;;;0.40;0.40;;;17.10;68.90;;;;;;5000529;28;20053;-74
2023/03/19 08:33:09;;;;;;;0.20;0.20;;;17.10;68.90;;;;;;5000695;28;20054;-74
2023/03/19 08:35:35;;;;;;;0.32;0.30;;;17.10;68.80;;;;;;4997567;28;20439;-73
2023/03/19 08:38:04;;;;;;;0.20;0.10;;;17.20;69.00;;;;;;5003315;28;20050;-74
2023/03/19 08:40:29;;;;;;;0.30;0.30;;;17.10;68.90;;;;;;5002973;28;20116;-74
2023/03/19 08:42:55;;;;;;;0.30;0.20;;;17.10;69.30;;;;;;5001931;28;20043;-74
2023/03/19 08:45:21;;;;;;;0.50;0.40;;;17.10;69.10;;;;;;5002345;28;20427;-74
2023/03/19 08:47:47;;;;;;;0.10;0.10;;;17.20;68.80;;;;;;5016685;28;20463;-73
2023/03/19 08:50:13;;;;;;;0.10;0.10;;;17.20;68.70;;;;;;5004242;28;20592;-75
2023/03/19 08:52:38;;;;;;;0.25;0.20;;;17.20;68.80;;;;;;5006155;28;20740;-74
2023/03/19 08:55:04;;;;;;;0.32;0.30;;;17.20;68.70;;;;;;5005014;28;20045;-73
2023/03/19 08:57:31;;;;;;;0.38;0.15;;;17.20;68.80;;;;;;5000581;28;20571;-73
2023/03/19 08:59:56;;;;;;;0.20;0.20;;;17.20;68.70;;;;;;5002224;28;20049;-75
2023/03/19 09:02:22;;;;;;;0.30;0.30;;;17.30;68.80;;;;;;5000785;28;20515;-75
2023/03/19 09:04:47;;;;;;;0.15;0.15;;;17.20;69.60;;;;;;5001858;28;20565;-74
2023/03/19 09:07:14;;;;;;;0.95;0.17;;;17.20;69.80;;;;;;5001768;28;20141;-74
2023/03/19 09:09:41;;;;;;;0.40;0.20;;;17.20;70.00;;;;;;5001361;28;20096;-73
2023/03/19 09:12:07;;;;;;;0.75;0.20;;;17.20;70.00;;;;;;5014075;28;20056;-73
2023/03/19 09:14:33;;;;;;;0.60;0.30;;;17.20;69.90;;;;;;4999665;28;20034;-74
2023/03/19 09:16:59;;;;;;;0.40;0.30;;;17.20;70.50;;;;;;5001624;28;20062;-74
2023/03/19 09:19:25;;;;;;;0.77;0.25;;;17.20;69.50;;;;;;5000465;28;20037;-74
2023/03/19 09:21:50;;;;;;;0.60;0.20;;;17.20;69.50;;;;;;5000978;28;20042;-74
2023/03/19 09:24:16;;;;;;;0.20;0.20;;;17.20;69.40;;;;;;5000509;28;20101;-73
2023/03/19 09:26:42;;;;;;;0.20;0.13;;;17.30;69.50;;;;;;4985802;28;20149;-74
2023/03/19 09:29:07;;;;;;;0.57;0.20;;;17.20;69.20;;;;;;5001162;28;20046;-73
2023/03/19 09:31:33;;;;;;;0.22;0.10;;;17.30;69.00;;;;;;5002491;28;20477;-74
2023/03/19 09:33:59;;;;;;;0.35;0.20;;;17.30;69.30;;;;;;5001650;28;20034;-75
2023/03/19 09:36:25;;;;;;;0.10;0.10;;;17.20;69.30;;;;;;4997749;28;20038;-73
2023/03/19 09:38:51;;;;;;;0.60;0.20;;;17.30;69.20;;;;;;5016939;28;20431;-73
2023/03/19 09:41:27;;;;;;;0.68;0.30;;;17.30;69.00;;;;;;5001211;28;20038;-73
2023/03/19 09:44:09;;;;;;;0.45;0.15;;;17.30;69.00;;;;;;5000006;28;20184;-73
2023/03/19 09:46:52;;;;;;;3.40;0.20;;;17.30;69.00;;;;;;5002634;28;20129;-73
2023/03/19 09:49:37;;;;;;;1.15;0.43;;;17.30;68.90;;;;;;4999861;28;20049;-73
2023/03/19 09:52:31;;;;;;;1.30;0.40;;;17.30;68.70;;;;;;4999740;28;20073;-73
2023/03/19 09:54:58;;;;;;;0.75;0.30;;;17.30;68.70;;;;;;5002908;28;20137;-73
2023/03/19 09:57:23;;;;;;;0.30;0.20;;;17.30;68.70;;;;;;4998452;28;20061;-73
2023/03/19 09:59:49;;;;;;;0.25;0.25;;;17.30;68.50;;;;;;5003843;28;20050;-73
2023/03/19 10:02:20;;;;;;;0.38;0.15;;;17.30;68.50;;;;;;4999920;28;20117;-74
2023/03/19 10:04:46;;;;;;;0.15;0.10;;;17.30;68.60;;;;;;4997761;28;20049;-73
2023/03/19 10:07:36;;;;;;;0.20;0.20;;;17.30;68.50;;;;;;5003549;28;20049;-73
2023/03/19 10:10:35;;;;;;;0.22;0.20;;;17.30;68.40;;;;;;5000605;28;20046;-73
2023/03/19 10:13:32;;;;;;;2.15;0.20;;;17.30;68.40;;;;;;4999953;28;20045;-74
2023/03/19 10:15:59;;;;;;;0.50;0.40;;;17.40;68.10;;;;;;5001257;28;20045;-75
2023/03/19 10:18:33;;;;;;;0.65;0.35;;;17.40;68.40;;;;;;4998013;28;20514;-75
2023/03/19 10:21:05;;;;;;;;;;;17.40;68.00;;;;;;5003924;28;20525;-73
2023/03/19 10:23:33;;;;;;;0.47;0.25;;;17.40;68.10;;;;;;5003621;28;19956;-74
2023/03/19 10:26:01;;;;;;;0.80;0.25;;;17.40;68.10;;;;;;5002319;28;20088;-73
2023/03/19 10:28:27;;;;;;;0.38;0.10;;;17.40;68.20;;;;;;5003916;28;20060;-72
2023/03/19 10:30:55;;;;;;;0.30;0.20;;;17.40;68.50;;;;;;5001797;28;20538;-73
2023/03/19 10:33:25;;;;;;;2.60;0.40;;;17.40;68.40;;;;;;5000301;28;20046;-74
2023/03/19 10:36:11;;;;;;;2.67;0.77;;;17.40;69.30;;;;;;5001350;28;20418;-74
2023/03/19 10:38:42;;;;;;;5.25;0.57;;;17.50;69.10;;;;;;5018443;28;20066;-73
2023/03/19 10:41:28;;;;;;;2.08;0.57;;;17.50;69.00;;;;;;5001212;28;20042;-73
2023/03/19 10:43:57;;;;;;;0.68;0.30;;;17.50;68.80;;;;;;5011992;28;20038;-73
2023/03/19 10:46:23;;;;;;;0.40;0.40;;;17.50;68.30;;;;;;5000585;28;20472;-74
2023/03/19 10:48:49;;;;;;;0.95;0.68;;;17.50;68.00;;;;;;4999682;28;20050;-73
2023/03/19 10:51:15;;;;;;;1.40;0.30;;;17.50;68.60;;;;;;5001125;28;20057;-73
2023/03/19 10:53:41;;;;;;;2.25;0.20;;;17.50;68.70;;;;;;4986989;28;20059;-73
2023/03/19 10:56:19;;;;;;;0.60;0.30;;;17.50;68.50;;;;;;5005488;28;20042;-72
2023/03/19 10:59:09;;;;;;;1.38;0.20;;;17.50;68.40;;;;;;4975639;28;20054;-73
2023/03/19 11:01:37;;;;;;;0.80;0.30;;;17.50;68.10;;;;;;5017232;28;20056;-73
2023/03/19 11:04:11;;;;;;;0.43;0.30;;;17.50;68.10;;;;;;5005975;28;20510;-74
2023/03/19 11:06:37;;;;;;;1.58;0.20;;;17.50;68.20;;;;;;5004286;28;20109;-72
2023/03/19 11:09:13;;;;;;;1.55;0.30;;;17.50;68.20;;;;;;5005036;28;20460;-73
2023/03/19 11:11:43;;;;;;;0.38;0.20;;;17.50;68.10;;;;;;4970132;28;20100;-73
2023/03/19 11:14:35;;;;;;;0.60;0.30;;;17.60;68.10;;;;;;5000663;28;20054;-74
2023/03/19 11:17:45;;;;;;;0.68;0.50;;;17.60;68.00;;;;;;5003522;28;20231;-74
2023/03/19 11:20:21;;;;;;;0.60;0.40;;;17.60;67.90;;;;;;5003569;28;20034;-74
2023/03/19 11:22:47;;;;;;;1.50;0.30;;;17.60;67.90;;;;;;5004376;28;20046;-74
2023/03/19 11:25:22;;;;;;;1.98;0.30;;;17.60;67.90;;;;;;5003515;28;20046;-73
2023/03/19 11:28:23;;;;;;;0.32;0.10;;;17.60;67.90;;;;;;5000552;28;20107;-74
2023/03/19 11:30:59;;;;;;;0.82;0.20;;;17.60;67.90;;;;;;4999994;28;20052;-75
2023/03/19 11:33:35;;;;;;;0.20;0.20;;;17.60;67.80;;;;;;5008047;28;20042;-75
2023/03/19 11:36:22;;;;;;;0.50;0.20;;;17.70;67.80;;;;;;5003456;28;20756;-73
2023/03/19 11:39:06;;;;;;;0.47;0.30;;;17.70;67.50;;;;;;5004192;28;20125;-72
2023/03/19 11:41:59;;;;;;;0.50;0.30;;;17.80;67.70;;;;;;5004692;28;20419;-72
2023/03/19 11:44:28;;;;;;;0.98;0.52;;;17.70;67.70;;;;;;5003545;28;20461;-73
2023/03/19 11:47:06;;;;;;;1.13;0.45;;;17.70;67.70;;;;;;5002787;28;20064;-72
2023/03/19 11:49:56;;;;;;;0.30;0.30;;;17.70;67.60;;;;;;5000771;28;20050;-72
2023/03/19 11:52:36;;;;;;;0.43;0.20;;;17.70;67.80;;;;;;5000971;28;20056;-72
2023/03/19 11:55:23;;;;;;;1.35;0.38;;;17.70;67.80;;;;;;5002986;28;20045;-72
2023/03/19 11:58:21;;;;;;;0.60;0.30;;;17.70;67.90;;;;;;5002395;28;20049;-72
2023/03/19 12:00:54;;;;;;;0.45;0.25;;;17.70;67.80;;;;;;5004021;28;20585;-73
2023/03/19 12:03:29;;;;;;;1.60;0.33;;;17.70;67.80;;;;;;5002957;28;20053;-72
2023/03/19 12:05:55;;;;;;;;;;;17.70;67.80;;;;;;5003913;28;20058;-72
2023/03/19 12:09:00;;;;;;;0.55;0.20;;;17.70;67.80;;;;;;5008117;28;19933;-72
2023/03/19 12:11:33;;;;;;;0.63;0.20;;;17.70;67.80;;;;;;5000933;28;20050;-71
2023/03/19 12:14:27;;;;;;;0.70;0.30;;;17.70;67.70;;;;;;5002662;28;20046;-72
2023/03/19 12:17:33;;;;;;;0.47;0.30;;;17.70;67.80;;;;;;5004385;28;20457;-72
2023/03/19 12:20:35;;;;;;;1.27;0.20;;;17.80;67.60;;;;;;5003756;28;20065;-72
2023/03/19 12:23:22;;;;;;;0.98;0.30;;;17.80;67.60;;;;;;5002109;28;20046;-73
2023/03/19 12:26:03;;;;;;;1.20;0.30;;;17.80;67.30;;;;;;4655395;28;10000536;-72
2023/03/19 12:28:30;;;;;;;0.40;0.30;;;17.80;67.50;;;;;;5007107;28;20053;-72
2023/03/19 12:31:22;;;;;;;0.93;0.43;;;17.70;67.50;;;;;;5006693;28;20127;-72
2023/03/19 12:34:03;;;;;;;0.28;0.20;;;17.70;67.60;;;;;;4997253;28;20584;-72
2023/03/19 12:36:30;;;;;;;1.05;0.30;;;17.70;67.50;;;;;;5005044;28;20038;-72
2023/03/19 12:39:00;;;;;;;0.20;0.10;;;17.70;67.40;;;;;;4992743;28;20041;-72
2023/03/19 12:41:30;;;;;;;0.45;0.30;;;17.70;67.40;;;;;;5005973;28;20519;-72
2023/03/19 12:44:20;;;;;;;0.52;0.25;;;17.70;67.50;;;;;;5006268;28;20050;-72
2023/03/19 12:47:01;;;;;;;0.20;0.15;;;17.70;67.50;;;;;;5017458;28;20038;-72
2023/03/19 12:49:37;;;;;;;0.20;0.20;;;17.70;67.50;;;;;;5005777;28;20129;-72
2023/03/19 12:52:26;;;;;;;0.20;0.10;;;17.70;67.40;;;;;;5003039;28;20036;-72
2023/03/19 12:55:10;;;;;;;0.28;0.22;;;17.70;67.30;;;;;;5004762;28;20038;-72
2023/03/19 12:57:42;;;;;;;0.30;0.22;;;17.70;67.30;;;;;;5006280;28;20037;-72